CheckWX is a tool to help pilots better visualize weather data.  It is not intended as a substitute for an official pre-flight weather briefing.

07:11:46 UTC

KASJ METAR
Tri-County Airport
Ahoskie, North Carolina, USA
Current

12 mins ago

KASJ 210700Z AUTO 25003KT 10SM CLR 21/20 A2991 RMK AO2 T02100198
Observed
May-21 @ 07:00 UTC
Wind
  • 250° at 3 KTS
Visibility
10 SM
Flight Rules
VFR
Cloud Levels
  • Clear skies
Temperature
21°C / 70°F
Dewpoint
20°C / 68°F
Humidity
94%
Altimeter
29.91" Hg
Pressure
1012.92 hPa
Previous

32 mins ago

KASJ 210640Z AUTO 24004KT 10SM CLR 21/20 A2991 RMK AO2 T02110200
Observed
May-21 @ 06:40 UTC
Wind
  • 240° at 4 KTS
Visibility
10 SM
Flight Rules
VFR
Cloud Levels
  • Clear skies
Temperature
21°C / 70°F
Dewpoint
20°C / 68°F
Humidity
94%
Altimeter
29.91" Hg
Pressure
1012.92 hPa
Previous

52 mins ago

KASJ 210620Z AUTO 00000KT 10SM CLR 22/21 A2991 RMK AO2 T02150205
Observed
May-21 @ 06:20 UTC
Visibility
10 SM
Flight Rules
VFR
Cloud Levels
  • Clear skies
Temperature
22°C / 72°F
Dewpoint
21°C / 70°F
Humidity
94%
Altimeter
29.91" Hg
Pressure
1012.92 hPa